Time;durP1;ratioP1;P1;durP2;ratioP2;P2;SDS_P1;SDS_P2;PMS_P1;PMS_P2;Temp;Humidity;BMP_temperature;BMP_pressure;BME280_temperature;BME280_humidity;BME280_pressure;Samples;Min_cycle;Max_cycle;Signal;HPM_P1;HPM_P2
2022/04/25 00:01:53;;;;;;;13.00;6.43;;;;;;;;;;5016840;28;20874;-73
2022/04/25 00:04:18;;;;;;;13.82;7.50;;;;;;;;;;5019850;28;20475;-73
2022/04/25 00:06:43;;;;;;;11.43;6.43;;;;;;;;;;5012981;28;20029;-73
2022/04/25 00:09:08;;;;;;;9.70;5.93;;;;;;;;;;5016015;28;20375;-73
2022/04/25 00:11:33;;;;;;;14.00;7.30;;;;;;;;;;5011503;28;20271;-72
2022/04/25 00:13:59;;;;;;;12.57;7.25;;;;;;;;;;5017348;28;20675;-73
2022/04/25 00:16:24;;;;;;;12.38;7.60;;;;;;;;;;5020991;28;20047;-73
2022/04/25 00:18:49;;;;;;;11.68;7.53;;;;;;;;;;5017575;28;20029;-73
2022/04/25 00:21:15;;;;;;;12.38;6.78;;;;;;;;;;5017030;28;20500;-72
2022/04/25 00:23:40;;;;;;;13.45;7.65;;;;;;;;;;5016852;28;20467;-72
2022/04/25 00:26:06;;;;;;;11.90;6.95;;;;;;;;;;5014405;28;20017;-73
2022/04/25 00:28:31;;;;;;;14.85;7.22;;;;;;;;;;5014548;28;20299;-73
2022/04/25 00:30:56;;;;;;;11.73;7.20;;;;;;;;;;5020924;28;20025;-72
2022/04/25 00:33:21;;;;;;;17.47;7.40;;;;;;;;;;5016318;28;20065;-72
2022/04/25 00:35:47;;;;;;;11.50;7.30;;;;;;;;;;5015473;28;20267;-73
2022/04/25 00:38:12;;;;;;;14.20;8.45;;;;;;;;;;5012756;28;20288;-72
2022/04/25 00:40:37;;;;;;;15.27;7.40;;;;;;;;;;5014533;28;20132;-73
2022/04/25 00:43:02;;;;;;;14.48;7.57;;;;;;;;;;5022308;28;20037;-73
2022/04/25 00:45:30;;;;;;;11.77;7.25;;;;;;;;;;5018413;28;20428;-72
2022/04/25 00:47:58;;;;;;;13.05;7.47;;;;;;;;;;5025803;28;20267;-72
2022/04/25 00:50:23;;;;;;;13.05;7.65;;;;;;;;;;5021348;28;20063;-72
2022/04/25 00:52:48;;;;;;;19.38;8.63;;;;;;;;;;5008643;28;20283;-72
2022/04/25 00:55:14;;;;;;;15.90;7.72;;;;;;;;;;5004725;28;20850;-73
2022/04/25 00:57:39;;;;;;;15.82;7.75;;;;;;;;;;5013716;28;20063;-73
2022/04/25 01:00:06;;;;;;;16.77;8.55;;;;;;;;;;5013659;28;20038;-73
2022/04/25 01:02:31;;;;;;;13.38;8.70;;;;;;;;;;5024658;28;20458;-73
2022/04/25 01:04:57;;;;;;;13.43;8.30;;;;;;;;;;5025941;28;20029;-73
2022/04/25 01:07:22;;;;;;;15.73;9.48;;;;;;;;;;5017002;28;20668;-73
2022/04/25 01:09:47;;;;;;;16.17;8.20;;;;;;;;;;5021424;28;20112;-73
2022/04/25 01:12:12;;;;;;;21.20;10.15;;;;;;;;;;5018989;28;20527;-73
2022/04/25 01:14:38;;;;;;;18.10;9.20;;;;;;;;;;5021358;28;20076;-73
2022/04/25 01:17:03;;;;;;;15.82;8.15;;;;;;;;;;5024803;28;20033;-73
2022/04/25 01:19:28;;;;;;;16.50;9.23;;;;;;;;;;5024044;28;22254;-73
2022/04/25 01:22:02;;;;;;;18.08;8.95;;;;;;;;;;5022420;28;20022;-73
2022/04/25 01:27:18;;;;;;;15.45;8.85;;;;;;;;;;5019643;28;20091;-73
2022/04/25 01:29:44;;;;;;;17.88;9.15;;;;;;;;;;5018204;28;20068;-73
2022/04/25 01:32:10;;;;;;;15.88;8.02;;;;;;;;;;5022027;28;20266;-72
2022/04/25 01:34:38;;;;;;;17.98;9.13;;;;;;;;;;5018075;28;20029;-72
2022/04/25 01:37:05;;;;;;;19.58;10.48;;;;;;;;;;5016152;28;20021;-72
2022/04/25 01:39:30;;;;;;;16.42;9.60;;;;;;;;;;5016360;28;20025;-73
2022/04/25 01:41:55;;;;;;;18.23;9.68;;;;;;;;;;5015306;28;20499;-73
2022/04/25 01:44:20;;;;;;;23.58;9.68;;;;;;;;;;5020815;28;20047;-72
2022/04/25 01:46:45;;;;;;;19.10;8.87;;;;;;;;;;5015781;28;20381;-73
2022/04/25 01:49:11;;;;;;;16.15;8.45;;;;;;;;;;5013475;28;20764;-73
2022/04/25 01:51:38;;;;;;;17.30;9.30;;;;;;;;;;5014843;28;20275;-73
2022/04/25 01:54:04;;;;;;;15.48;8.77;;;;;;;;;;5015747;28;20270;-73
2022/04/25 01:56:29;;;;;;;17.00;9.73;;;;;;;;;;5023566;28;20024;-73
2022/04/25 01:58:54;;;;;;;13.50;9.07;;;;;;;;;;5017309;28;20025;-72
2022/04/25 02:01:19;;;;;;;19.30;9.52;;;;;;;;;;5003415;28;20025;-73
2022/04/25 02:03:46;;;;;;;17.02;8.95;;;;;;;;;;5017638;28;20727;-73
2022/04/25 02:06:11;;;;;;;19.75;9.95;;;;;;;;;;5020081;28;20361;-73
2022/04/25 02:08:37;;;;;;;16.85;10.10;;;;;;;;;;5022594;28;20021;-73
2022/04/25 02:11:22;;;;;;;19.65;9.80;;;;;;;;;;5014760;28;20010;-73
2022/04/25 02:13:51;;;;;;;16.27;9.52;;;;;;;;;;5017045;28;20029;-73
2022/04/25 02:16:17;;;;;;;15.38;9.13;;;;;;;;;;5017263;28;20670;-73
2022/04/25 02:18:42;;;;;;;17.13;9.77;;;;;;;;;;5017589;28;20033;-73
2022/04/25 02:21:07;;;;;;;18.77;9.68;;;;;;;;;;5028153;28;20407;-73
2022/04/25 02:23:33;;;;;;;19.23;10.07;;;;;;;;;;5021124;28;20035;-73
2022/04/25 02:25:59;;;;;;;19.63;10.15;;;;;;;;;;5015387;28;20435;-73
2022/04/25 02:28:24;;;;;;;16.05;10.07;;;;;;;;;;5003853;28;20044;-73
2022/04/25 02:30:51;;;;;;;18.30;9.40;;;;;;;;;;5018405;28;20029;-73
2022/04/25 02:33:16;;;;;;;16.67;9.57;;;;;;;;;;5018256;28;20283;-73
2022/04/25 02:35:41;;;;;;;22.20;11.20;;;;;;;;;;5020437;28;20026;-72
2022/04/25 02:38:06;;;;;;;15.60;9.40;;;;;;;;;;5018750;28;20053;-73
2022/04/25 02:40:31;;;;;;;23.13;10.82;;;;;;;;;;5015927;28;20794;-73
2022/04/25 02:42:56;;;;;;;22.13;10.00;;;;;;;;;;5017449;28;20653;-73
2022/04/25 02:45:22;;;;;;;26.15;10.25;;;;;;;;;;5018558;28;20278;-73
2022/04/25 02:47:47;;;;;;;18.60;9.83;;;;;;;;;;5018361;28;20751;-73
2022/04/25 02:50:12;;;;;;;22.33;10.30;;;;;;;;;;5024370;28;20370;-73
2022/04/25 02:52:37;;;;;;;18.75;10.80;;;;;;;;;;5021112;28;20131;-73
2022/04/25 02:55:02;;;;;;;20.73;10.90;;;;;;;;;;5014863;28;20033;-73
2022/04/25 02:57:28;;;;;;;20.65;10.70;;;;;;;;;;5016765;28;20484;-73
2022/04/25 02:59:53;;;;;;;22.77;10.90;;;;;;;;;;5021418;28;20038;-73
2022/04/25 03:02:18;;;;;;;17.50;10.20;;;;;;;;;;5014139;28;20763;-73
2022/04/25 03:04:43;;;;;;;21.60;11.07;;;;;;;;;;5019090;28;20026;-73
2022/04/25 03:07:08;;;;;;;22.23;11.20;;;;;;;;;;5016209;28;20637;-73
2022/04/25 03:09:34;;;;;;;28.08;10.80;;;;;;;;;;5023328;28;20270;-73
2022/04/25 03:11:59;;;;;;;23.30;11.43;;;;;;;;;;5027047;28;20033;-73
2022/04/25 03:14:25;;;;;;;21.47;11.43;;;;;;;;;;5000846;28;20708;-72
2022/04/25 03:16:50;;;;;;;24.48;12.07;;;;;;;;;;5031045;28;20912;-73
2022/04/25 03:19:17;;;;;;;26.02;11.75;;;;;;;;;;5024955;28;20037;-73
2022/04/25 03:21:42;;;;;;;23.55;11.88;;;;;;;;;;5014861;28;20267;-73
2022/04/25 03:24:07;;;;;;;22.15;11.48;;;;;;;;;;5018459;28;20526;-73
2022/04/25 03:26:33;;;;;;;26.95;11.18;;;;;;;;;;5018837;28;20513;-73
2022/04/25 03:28:58;;;;;;;30.83;12.43;;;;;;;;;;5018707;28;22882;-73
2022/04/25 03:31:23;;;;;;;26.95;12.65;;;;;;;;;;5026645;28;20044;-73
2022/04/25 03:33:48;;;;;;;30.63;12.05;;;;;;;;;;5012673;28;20352;-73
2022/04/25 03:36:14;;;;;;;27.42;12.27;;;;;;;;;;5017197;28;20119;-73
2022/04/25 03:38:42;;;;;;;28.38;12.50;;;;;;;;;;5021013;28;20668;-73
2022/04/25 03:41:07;;;;;;;25.45;12.80;;;;;;;;;;5021236;28;20033;-73
2022/04/25 03:43:33;;;;;;;27.73;11.98;;;;;;;;;;5023688;28;20017;-73
2022/04/25 03:45:59;;;;;;;23.00;12.90;;;;;;;;;;5015834;28;20040;-73
2022/04/25 03:48:24;;;;;;;28.48;11.93;;;;;;;;;;5018218;28;20028;-73
2022/04/25 03:50:49;;;;;;;27.08;12.52;;;;;;;;;;5021761;28;20138;-73
2022/04/25 03:53:15;;;;;;;32.13;12.70;;;;;;;;;;5019291;28;20022;-73
2022/04/25 03:58:31;;;;;;;27.65;12.68;;;;;;;;;;5011668;28;20040;-73
2022/04/25 04:00:58;;;;;;;27.63;13.27;;;;;;;;;;5019691;28;20013;-73
2022/04/25 04:03:23;;;;;;;23.67;12.50;;;;;;;;;;5022949;28;20357;-73
2022/04/25 04:05:50;;;;;;;29.40;12.48;;;;;;;;;;5014021;28;20108;-73
2022/04/25 04:08:16;;;;;;;31.85;13.30;;;;;;;;;;5004992;28;20025;-72
2022/04/25 04:10:41;;;;;;;33.60;13.20;;;;;;;;;;5022952;28;20043;-73
2022/04/25 04:13:07;;;;;;;30.30;13.40;;;;;;;;;;5015775;28;20112;-73
2022/04/25 04:15:32;;;;;;;30.73;13.70;;;;;;;;;;5022149;28;20040;-73
2022/04/25 04:17:57;;;;;;;33.72;14.55;;;;;;;;;;5001260;28;20036;-73
2022/04/25 04:20:23;;;;;;;39.63;14.15;;;;;;;;;;5015975;28;20038;-73
2022/04/25 04:22:48;;;;;;;32.25;14.65;;;;;;;;;;5021904;28;20538;-73
2022/04/25 04:25:13;;;;;;;37.20;15.30;;;;;;;;;;5017769;28;20029;-73
2022/04/25 04:27:39;;;;;;;33.88;15.68;;;;;;;;;;5020898;28;20032;-73
2022/04/25 04:30:06;;;;;;;26.77;14.50;;;;;;;;;;5019791;28;20037;-73
2022/04/25 04:32:32;;;;;;;34.33;15.60;;;;;;;;;;5032103;28;20474;-73
2022/04/25 04:34:57;;;;;;;38.13;15.57;;;;;;;;;;5022026;28;20037;-73
2022/04/25 04:37:23;;;;;;;41.67;16.45;;;;;;;;;;5022792;28;20039;-73
2022/04/25 04:39:48;;;;;;;37.55;17.30;;;;;;;;;;5020855;28;20456;-73
2022/04/25 04:42:14;;;;;;;44.70;16.75;;;;;;;;;;5019032;28;20068;-73
2022/04/25 04:44:41;;;;;;;39.27;17.30;;;;;;;;;;5017428;28;20076;-74
2022/04/25 04:47:06;;;;;;;40.38;16.65;;;;;;;;;;4997525;28;20282;-73
2022/04/25 04:49:31;;;;;;;33.85;15.05;;;;;;;;;;5021356;28;20032;-71
2022/04/25 04:51:56;;;;;;;29.17;13.80;;;;;;;;;;5012949;28;20467;-76
2022/04/25 04:54:21;;;;;;;36.33;14.27;;;;;;;;;;5011384;28;20033;-72
2022/04/25 04:56:47;;;;;;;32.90;14.60;;;;;;;;;;5018149;28;20033;-75
2022/04/25 04:59:12;;;;;;;26.83;13.07;;;;;;;;;;5016118;28;20294;-73
2022/04/25 05:01:38;;;;;;;37.42;15.77;;;;;;;;;;5016412;28;20099;-73
2022/04/25 05:04:03;;;;;;;32.92;15.13;;;;;;;;;;5016109;28;20037;-73
2022/04/25 05:06:29;;;;;;;33.38;14.15;;;;;;;;;;5010346;28;20068;-73
2022/04/25 05:08:54;;;;;;;28.58;13.57;;;;;;;;;;5017045;28;20030;-73
2022/04/25 05:11:20;;;;;;;36.70;15.10;;;;;;;;;;5031354;28;20025;-73
2022/04/25 05:13:45;;;;;;;34.95;14.70;;;;;;;;;;5017182;28;20029;-73
2022/04/25 05:16:10;;;;;;;37.35;16.25;;;;;;;;;;5016972;28;20036;-73
2022/04/25 05:18:35;;;;;;;37.00;15.63;;;;;;;;;;5016111;28;20377;-73
2022/04/25 05:21:01;;;;;;;40.78;16.25;;;;;;;;;;5012792;28;20664;-73
2022/04/25 05:23:26;;;;;;;35.13;15.43;;;;;;;;;;5034688;28;20405;-73
2022/04/25 05:25:51;;;;;;;33.45;15.43;;;;;;;;;;5015481;28;20053;-73
2022/04/25 05:28:17;;;;;;;38.97;16.77;;;;;;;;;;5012861;28;20021;-73
2022/04/25 05:30:44;;;;;;;38.67;15.13;;;;;;;;;;5020817;28;20262;-72
2022/04/25 05:33:09;;;;;;;44.90;17.27;;;;;;;;;;5019534;28;20032;-73
2022/04/25 05:35:35;;;;;;;38.65;16.80;;;;;;;;;;5017924;28;20024;-73
2022/04/25 05:38:00;;;;;;;37.15;17.95;;;;;;;;;;5026261;28;20068;-72
2022/04/25 05:40:26;;;;;;;38.25;17.20;;;;;;;;;;5017623;28;20021;-73
2022/04/25 05:42:51;;;;;;;39.10;17.65;;;;;;;;;;5019979;28;20471;-73
2022/04/25 05:45:18;;;;;;;43.33;17.67;;;;;;;;;;5013962;28;20021;-74
2022/04/25 05:47:44;;;;;;;42.30;17.45;;;;;;;;;;5026422;28;20022;-76
2022/04/25 05:52:54;;;;;;;34.03;16.33;;;;;;;;;;5012566;28;20571;-73
2022/04/25 05:55:20;;;;;;;55.65;19.27;;;;;;;;;;5028392;28;20863;-73
2022/04/25 05:57:45;;;;;;;47.33;17.40;;;;;;;;;;5019996;28;20025;-73
2022/04/25 06:00:11;;;;;;;47.28;17.42;;;;;;;;;;5031948;28;20290;-73
2022/04/25 06:02:37;;;;;;;43.00;19.15;;;;;;;;;;5023232;28;20634;-73
2022/04/25 06:05:02;;;;;;;38.22;18.45;;;;;;;;;;5032884;28;20017;-74
2022/04/25 06:07:27;;;;;;;50.05;20.05;;;;;;;;;;5022000;28;20506;-73
2022/04/25 06:09:52;;;;;;;44.65;17.80;;;;;;;;;;5009227;28;20037;-73
2022/04/25 06:12:18;;;;;;;42.28;18.25;;;;;;;;;;5021566;28;20260;-73
2022/04/25 06:14:44;;;;;;;45.42;18.35;;;;;;;;;;5019588;28;20059;-73
2022/04/25 06:17:13;;;;;;;49.33;18.60;;;;;;;;;;5024128;28;20416;-73
2022/04/25 06:19:38;;;;;;;45.67;18.15;;;;;;;;;;5033677;28;20079;-73
2022/04/25 06:22:03;;;;;;;43.47;18.25;;;;;;;;;;5020330;28;20056;-73
2022/04/25 06:24:29;;;;;;;38.72;17.20;;;;;;;;;;5024425;28;20309;-73
2022/04/25 06:26:55;;;;;;;53.47;19.20;;;;;;;;;;5023642;28;20061;-73
2022/04/25 06:29:21;;;;;;;47.70;18.92;;;;;;;;;;5018197;28;20028;-73
2022/04/25 06:31:46;;;;;;;48.42;20.05;;;;;;;;;;5023873;28;20021;-74
2022/04/25 06:34:11;;;;;;;39.87;17.40;;;;;;;;;;5024884;28;20093;-73
2022/04/25 06:36:36;;;;;;;41.10;19.33;;;;;;;;;;5019760;28;20326;-73
2022/04/25 06:39:02;;;;;;;51.85;19.60;;;;;;;;;;5023767;28;20414;-73
2022/04/25 06:41:28;;;;;;;49.78;19.52;;;;;;;;;;5023035;28;20030;-73
2022/04/25 06:43:53;;;;;;;44.58;20.02;;;;;;;;;;5025565;28;20022;-73
2022/04/25 06:46:18;;;;;;;50.78;20.85;;;;;;;;;;5036691;28;20514;-73
2022/04/25 06:49:19;;;;;;;49.67;20.85;;;;;;;;;;5017125;28;20266;-73
2022/04/25 06:51:30;;;;;;;60.00;20.63;;;;;;;;;;5026070;28;20407;-73
2022/04/25 06:53:55;;;;;;;70.88;22.23;;;;;;;;;;5012137;28;20392;-73
2022/04/25 06:56:20;;;;;;;68.23;24.43;;;;;;;;;;5025676;28;20028;-73
2022/04/25 06:58:45;;;;;;;66.87;26.90;;;;;;;;;;5016039;28;20306;-73
2022/04/25 07:01:10;;;;;;;68.50;26.25;;;;;;;;;;5018942;28;20972;-73
2022/04/25 07:03:36;;;;;;;91.30;30.92;;;;;;;;;;5024192;28;20021;-73
2022/04/25 07:06:01;;;;;;;70.40;28.95;;;;;;;;;;5012524;28;20050;-75
2022/04/25 07:08:27;;;;;;;73.60;28.03;;;;;;;;;;5021811;28;20353;-74
2022/04/25 07:10:53;;;;;;;69.65;27.13;;;;;;;;;;5018744;28;20270;-73
2022/04/25 07:13:18;;;;;;;70.43;28.77;;;;;;;;;;5035601;28;20478;-74
2022/04/25 07:15:43;;;;;;;76.85;28.83;;;;;;;;;;5008231;28;20088;-73
2022/04/25 07:18:08;;;;;;;85.17;29.93;;;;;;;;;;5020396;28;20483;-74
2022/04/25 07:20:33;;;;;;;78.55;28.85;;;;;;;;;;5014575;28;20314;-74
2022/04/25 07:31:10;;;;;;;73.63;27.65;;;;;;;;;;5032617;28;20371;-74
2022/04/25 07:33:36;;;;;;;79.13;31.33;;;;;;;;;;5014941;28;20433;-74
2022/04/25 07:36:01;;;;;;;80.00;30.30;;;;;;;;;;5001788;28;20033;-73
2022/04/25 07:38:27;;;;;;;76.55;30.55;;;;;;;;;;5021821;28;20490;-73
2022/04/25 07:40:52;;;;;;;81.35;31.42;;;;;;;;;;5023819;28;20442;-74
2022/04/25 07:43:17;;;;;;;81.95;29.48;;;;;;;;;;5008485;28;20021;-73
2022/04/25 07:45:42;;;;;;;75.30;28.67;;;;;;;;;;5018805;28;20460;-74
2022/04/25 07:48:07;;;;;;;89.68;32.70;;;;;;;;;;5027363;28;20286;-74
2022/04/25 07:50:33;;;;;;;84.80;30.38;;;;;;;;;;5023673;28;20032;-73
2022/04/25 07:52:58;;;;;;;79.68;29.60;;;;;;;;;;5022118;28;20029;-74
2022/04/25 07:55:23;;;;;;;76.50;31.30;;;;;;;;;;5033436;28;20180;-74
2022/04/25 07:57:48;;;;;;;79.13;29.50;;;;;;;;;;5009020;28;20034;-74
2022/04/25 08:00:14;;;;;;;88.97;31.80;;;;;;;;;;5027452;28;20293;-74
2022/04/25 08:02:39;;;;;;;71.53;28.80;;;;;;;;;;5018503;28;20708;-74
2022/04/25 08:05:04;;;;;;;83.07;29.50;;;;;;;;;;5019387;28;20040;-74
2022/04/25 08:07:30;;;;;;;82.88;30.67;;;;;;;;;;5017474;28;20025;-73
2022/04/25 08:09:55;;;;;;;68.25;26.20;;;;;;;;;;5027232;28;20134;-74
2022/04/25 08:18:01;;;;;;;68.95;27.38;;;;;;;;;;5027733;28;20040;-73
2022/04/25 08:20:28;;;;;;;66.88;25.77;;;;;;;;;;5027315;28;20052;-73
2022/04/25 08:22:53;;;;;;;70.63;25.70;;;;;;;;;;5031521;28;20029;-73
2022/04/25 08:25:19;;;;;;;68.70;30.52;;;;;;;;;;5016720;28;20018;-73
2022/04/25 08:27:44;;;;;;;73.37;26.37;;;;;;;;;;5016403;28;20152;-72
2022/04/25 08:30:11;;;;;;;68.90;27.15;;;;;;;;;;5017017;28;20764;-74
2022/04/25 08:32:36;;;;;;;74.13;26.95;;;;;;;;;;5017616;28;20314;-74
2022/04/25 08:35:02;;;;;;;67.23;24.87;;;;;;;;;;5018927;28;20105;-73
2022/04/25 08:37:28;;;;;;;61.30;23.98;;;;;;;;;;5020070;28;20701;-74
2022/04/25 08:39:53;;;;;;;52.05;22.60;;;;;;;;;;5023811;28;20028;-74
2022/04/25 08:42:19;;;;;;;58.60;23.60;;;;;;;;;;5027031;28;20060;-74
2022/04/25 08:44:45;;;;;;;57.35;22.10;;;;;;;;;;5030984;28;20620;-73
2022/04/25 08:47:13;;;;;;;55.08;20.85;;;;;;;;;;5020896;28;20025;-74
2022/04/25 08:49:38;;;;;;;51.08;20.45;;;;;;;;;;5029780;28;20075;-74
2022/04/25 08:52:05;;;;;;;49.55;20.75;;;;;;;;;;5023112;28;20442;-73
2022/04/25 08:54:32;;;;;;;57.88;22.48;;;;;;;;;;5026813;28;21084;-73
2022/04/25 08:56:57;;;;;;;51.15;20.27;;;;;;;;;;5012338;28;20336;-74
2022/04/25 08:59:23;;;;;;;52.20;21.27;;;;;;;;;;5019497;28;20410;-74
2022/04/25 09:01:48;;;;;;;55.00;21.98;;;;;;;;;;5025163;28;20025;-73
2022/04/25 09:04:14;;;;;;;55.58;21.80;;;;;;;;;;5023995;28;20029;-72
2022/04/25 09:06:39;;;;;;;57.35;23.23;;;;;;;;;;5017618;28;20018;-73
2022/04/25 09:09:04;;;;;;;55.63;21.48;;;;;;;;;;5025644;28;20423;-73
2022/04/25 09:14:13;;;;;;;49.97;22.43;;;;;;;;;;5023276;28;20049;-73
2022/04/25 09:16:39;;;;;;;56.75;21.38;;;;;;;;;;5034413;28;20030;-72
2022/04/25 09:19:04;;;;;;;57.05;23.90;;;;;;;;;;5024401;28;20345;-73
2022/04/25 09:21:29;;;;;;;55.30;21.92;;;;;;;;;;5030242;28;20017;-72
2022/04/25 09:23:54;;;;;;;57.33;23.02;;;;;;;;;;5022072;28;20025;-72
2022/04/25 09:26:28;;;;;;;61.95;23.30;;;;;;;;;;5037602;28;20025;-72
2022/04/25 09:28:54;;;;;;;61.53;23.88;;;;;;;;;;5026314;28;20263;-72
2022/04/25 09:31:21;;;;;;;60.75;21.13;;;;;;;;;;5028130;28;20075;-73
2022/04/25 09:33:47;;;;;;;65.47;24.27;;;;;;;;;;5032198;28;20346;-72
2022/04/25 09:36:12;;;;;;;63.85;23.08;;;;;;;;;;5022680;28;20056;-73
2022/04/25 09:38:38;;;;;;;65.57;24.60;;;;;;;;;;5021633;28;20040;-73
2022/04/25 09:41:05;;;;;;;65.03;24.23;;;;;;;;;;5035007;28;20320;-73
2022/04/25 09:43:34;;;;;;;68.32;24.25;;;;;;;;;;5019346;28;20009;-73
2022/04/25 09:45:59;;;;;;;72.43;27.05;;;;;;;;;;5031784;28;20035;-73
2022/04/25 09:48:25;;;;;;;68.47;26.93;;;;;;;;;;5031869;28;20021;-72
2022/04/25 09:51:00;;;;;;;64.00;25.27;;;;;;;;;;5021187;28;20277;-74
2022/04/25 09:53:44;;;;;;;74.25;25.85;;;;;;;;;;5021012;28;22391;-73
2022/04/25 09:56:15;;;;;;;61.55;24.17;;;;;;;;;;5017311;28;20025;-74
2022/04/25 09:58:41;;;;;;;66.97;25.60;;;;;;;;;;5019406;28;20025;-74
2022/04/25 10:01:13;;;;;;;82.07;27.65;;;;;;;;;;5021127;28;20041;-73
2022/04/25 10:03:38;;;;;;;70.85;24.98;;;;;;;;;;5023889;28;20024;-73
2022/04/25 10:06:04;;;;;;;62.80;24.48;;;;;;;;;;5018320;28;20033;-74
2022/04/25 10:08:31;;;;;;;72.97;27.10;;;;;;;;;;5020337;28;20021;-73
2022/04/25 10:10:57;;;;;;;66.60;25.05;;;;;;;;;;5041873;28;20021;-73
2022/04/25 10:13:24;;;;;;;64.25;25.13;;;;;;;;;;5037203;28;20025;-73
2022/04/25 10:15:49;;;;;;;68.60;26.75;;;;;;;;;;5027258;28;20049;-73
2022/04/25 10:18:15;;;;;;;64.22;26.70;;;;;;;;;;5020789;28;20503;-73
2022/04/25 10:20:41;;;;;;;61.95;25.25;;;;;;;;;;5021464;28;20025;-73
2022/04/25 10:23:09;;;;;;;65.68;26.10;;;;;;;;;;5014987;28;20025;-73
2022/04/25 10:25:36;;;;;;;63.25;25.52;;;;;;;;;;5028529;28;20472;-73
2022/04/25 10:28:02;;;;;;;64.13;26.27;;;;;;;;;;5013480;28;20308;-72
2022/04/25 10:30:34;;;;;;;67.82;27.00;;;;;;;;;;5020608;28;20108;-73
2022/04/25 10:33:19;;;;;;;74.43;27.42;;;;;;;;;;5026497;28;20021;-73
2022/04/25 10:35:46;;;;;;;68.35;26.17;;;;;;;;;;5026135;28;20629;-73
2022/04/25 10:38:47;;;;;;;68.35;24.35;;;;;;;;;;5017056;28;20462;-73
2022/04/25 10:44:12;;;;;;;71.85;26.65;;;;;;;;;;5021580;28;20043;-73
2022/04/25 10:46:58;;;;;;;73.72;26.77;;;;;;;;;;5024329;28;20057;-73
2022/04/25 10:49:30;;;;;;;73.82;25.65;;;;;;;;;;5022676;28;20037;-72
2022/04/25 10:51:55;;;;;;;69.40;25.38;;;;;;;;;;5023512;28;20379;-73
2022/04/25 10:54:23;;;;;;;74.68;26.17;;;;;;;;;;5030078;28;20041;-73
2022/04/25 10:57:14;;;;;;;67.97;26.25;;;;;;;;;;5024689;28;20021;-73
2022/04/25 10:59:40;;;;;;;73.75;27.05;;;;;;;;;;5015730;28;20044;-73
2022/04/25 11:02:20;;;;;;;69.60;26.10;;;;;;;;;;5023310;28;20345;-73
2022/04/25 11:04:45;;;;;;;65.63;25.35;;;;;;;;;;5031285;28;20044;-73
2022/04/25 11:07:22;;;;;;;73.93;26.77;;;;;;;;;;5024506;28;20026;-73
2022/04/25 11:09:47;;;;;;;71.80;25.95;;;;;;;;;;5028139;28;20637;-74
2022/04/25 11:12:12;;;;;;;74.65;29.58;;;;;;;;;;5035009;28;20036;-73
2022/04/25 11:14:54;;;;;;;64.63;26.63;;;;;;;;;;5022298;28;20037;-73
2022/04/25 11:17:20;;;;;;;77.78;30.63;;;;;;;;;;5018316;28;20041;-74
2022/04/25 11:19:53;;;;;;;67.85;26.50;;;;;;;;;;5033731;28;20427;-73
2022/04/25 11:22:38;;;;;;;74.53;26.30;;;;;;;;;;5017020;28;20025;-73
2022/04/25 11:25:22;;;;;;;62.58;23.70;;;;;;;;;;5016599;28;20079;-73
2022/04/25 11:28:07;;;;;;;65.05;25.65;;;;;;;;;;5024626;28;20092;-74
2022/04/25 11:30:32;;;;;;;64.07;25.50;;;;;;;;;;5016822;28;20036;-73
2022/04/25 11:33:01;;;;;;;68.18;24.90;;;;;;;;;;5018041;28;20030;-73
2022/04/25 11:35:27;;;;;;;64.32;25.33;;;;;;;;;;5025007;28;20286;-74
2022/04/25 11:37:55;;;;;;;63.15;24.17;;;;;;;;;;5021590;28;20043;-73
2022/04/25 11:40:20;;;;;;;64.55;25.83;;;;;;;;;;5036022;28;20032;-73
2022/04/25 11:42:45;;;;;;;68.60;26.90;;;;;;;;;;5034508;28;20104;-73
2022/04/25 11:45:10;;;;;;;67.18;25.40;;;;;;;;;;5019760;28;20641;-72
2022/04/25 11:47:35;;;;;;;57.90;24.85;;;;;;;;;;5004747;28;20451;-72
2022/04/25 11:50:05;;;;;;;59.75;25.50;;;;;;;;;;5035088;28;20123;-73
2022/04/25 11:52:30;;;;;;;65.63;24.98;;;;;;;;;;5016293;28;20025;-73
2022/04/25 11:54:56;;;;;;;60.88;23.02;;;;;;;;;;5023336;28;20605;-72
2022/04/25 11:57:21;;;;;;;55.15;23.95;;;;;;;;;;5015713;28;20068;-73
2022/04/25 11:59:46;;;;;;;59.60;25.08;;;;;;;;;;5027863;28;20300;-72
2022/04/25 12:02:11;;;;;;;62.80;24.80;;;;;;;;;;5018855;28;20022;-73
2022/04/25 12:04:37;;;;;;;57.88;22.65;;;;;;;;;;5019651;28;20010;-72
2022/04/25 12:07:03;;;;;;;59.47;23.67;;;;;;;;;;5015947;28;20032;-72
2022/04/25 12:15:34;;;;;;;57.50;23.67;;;;;;;;;;5024051;28;20033;-73
2022/04/25 12:18:20;;;;;;;59.80;24.25;;;;;;;;;;5018107;28;20445;-73
2022/04/25 12:20:47;;;;;;;58.60;24.05;;;;;;;;;;5009857;28;20060;-73
2022/04/25 12:23:20;;;;;;;55.70;22.45;;;;;;;;;;5021886;28;20021;-73
2022/04/25 12:25:45;;;;;;;60.38;24.85;;;;;;;;;;5022189;28;20087;-73
2022/04/25 12:28:13;;;;;;;68.00;25.35;;;;;;;;;;5019192;28;20025;-72
2022/04/25 12:30:49;;;;;;;65.40;25.27;;;;;;;;;;5025265;28;20065;-73
2022/04/25 12:33:14;;;;;;;63.75;26.15;;;;;;;;;;5036826;28;20095;-73
2022/04/25 12:35:40;;;;;;;66.72;25.73;;;;;;;;;;5009450;28;20071;-73
2022/04/25 12:38:06;;;;;;;77.15;28.13;;;;;;;;;;5014704;28;20026;-73
2022/04/25 12:40:32;;;;;;;70.90;28.27;;;;;;;;;;5025030;28;20029;-72
2022/04/25 12:42:58;;;;;;;70.70;26.08;;;;;;;;;;5021955;28;20049;-72
2022/04/25 12:45:23;;;;;;;69.03;26.52;;;;;;;;;;5015053;28;20101;-73
2022/04/25 12:47:58;;;;;;;62.88;24.23;;;;;;;;;;5025617;28;20060;-72
2022/04/25 12:50:42;;;;;;;65.80;26.25;;;;;;;;;;5026562;28;20056;-72
2022/04/25 12:53:07;;;;;;;60.33;25.27;;;;;;;;;;5026443;28;20028;-73
2022/04/25 12:55:45;;;;;;;74.88;29.50;;;;;;;;;;5036277;28;20029;-73
2022/04/25 12:58:11;;;;;;;70.60;24.13;;;;;;;;;;5012258;28;20388;-73
2022/04/25 13:00:40;;;;;;;61.13;23.83;;;;;;;;;;5032535;28;20036;-72
2022/04/25 13:03:05;;;;;;;64.90;25.13;;;;;;;;;;5028775;28;20433;-73
2022/04/25 13:05:30;;;;;;;57.30;23.50;;;;;;;;;;5022850;28;20352;-73
2022/04/25 13:07:55;;;;;;;68.25;24.75;;;;;;;;;;5021268;28;20267;-73
2022/04/25 13:10:21;;;;;;;67.15;26.27;;;;;;;;;;5024971;28;20060;-72
2022/04/25 13:12:50;;;;;;;62.60;25.73;;;;;;;;;;5033826;28;20034;-72
2022/04/25 13:15:17;;;;;;;68.13;24.30;;;;;;;;;;5015175;28;20095;-73
2022/04/25 13:17:43;;;;;;;65.45;23.88;;;;;;;;;;5027607;28;20026;-73
2022/04/25 13:20:09;;;;;;;59.97;22.35;;;;;;;;;;5026067;28;20029;-72
2022/04/25 13:22:34;;;;;;;60.38;23.88;;;;;;;;;;5028511;28;20024;-73
2022/04/25 13:25:00;;;;;;;58.38;23.88;;;;;;;;;;5012905;28;20030;-72
2022/04/25 13:27:25;;;;;;;63.85;25.42;;;;;;;;;;5015877;28;20098;-73
2022/04/25 13:29:50;;;;;;;63.75;25.23;;;;;;;;;;5024833;28;20640;-72
2022/04/25 13:32:16;;;;;;;57.03;24.23;;;;;;;;;;5030765;28;20083;-73
2022/04/25 13:34:41;;;;;;;66.00;27.07;;;;;;;;;;5025110;28;20080;-73
2022/04/25 13:37:06;;;;;;;60.00;22.50;;;;;;;;;;5021766;28;20302;-73
2022/04/25 13:39:31;;;;;;;57.08;24.25;;;;;;;;;;5029023;28;20095;-73
2022/04/25 13:41:58;;;;;;;57.60;22.55;;;;;;;;;;5033715;28;20052;-72
2022/04/25 13:44:23;;;;;;;62.42;25.05;;;;;;;;;;5026128;28;20025;-73
2022/04/25 13:46:48;;;;;;;66.10;26.60;;;;;;;;;;5026888;28;20018;-73
2022/04/25 13:49:14;;;;;;;55.60;22.90;;;;;;;;;;5023247;28;20029;-72
2022/04/25 13:51:39;;;;;;;55.90;23.35;;;;;;;;;;5021169;28;21002;-73
2022/04/25 13:54:04;;;;;;;59.45;24.05;;;;;;;;;;5022018;28;20037;-73
2022/04/25 13:56:30;;;;;;;59.53;22.92;;;;;;;;;;5023747;28;20021;-73
2022/04/25 13:58:55;;;;;;;55.40;23.47;;;;;;;;;;5020442;28;20037;-73
2022/04/25 14:01:20;;;;;;;58.30;24.23;;;;;;;;;;5017105;28;20420;-73
2022/04/25 14:03:47;;;;;;;51.05;21.17;;;;;;;;;;5025069;28;20463;-73
2022/04/25 14:06:12;;;;;;;56.08;22.30;;;;;;;;;;5022853;28;20104;-73
2022/04/25 14:08:37;;;;;;;45.75;19.10;;;;;;;;;;5013754;28;20597;-72
2022/04/25 14:11:03;;;;;;;48.35;20.45;;;;;;;;;;5028583;28;20135;-72
2022/04/25 14:13:30;;;;;;;57.78;21.80;;;;;;;;;;5033146;28;20040;-72
2022/04/25 14:15:55;;;;;;;53.17;23.45;;;;;;;;;;5032210;28;20387;-72
2022/04/25 14:18:21;;;;;;;55.10;22.67;;;;;;;;;;5018316;28;20026;-72
2022/04/25 14:20:47;;;;;;;55.15;23.88;;;;;;;;;;5021905;28;20338;-72
2022/04/25 14:23:12;;;;;;;49.38;20.50;;;;;;;;;;5021591;28;20063;-72
2022/04/25 14:25:37;;;;;;;53.28;23.02;;;;;;;;;;5019961;28;20018;-73
2022/04/25 14:28:03;;;;;;;53.17;22.23;;;;;;;;;;5020403;28;20017;-73
2022/04/25 14:30:29;;;;;;;51.90;22.25;;;;;;;;;;5023948;28;20018;-72
2022/04/25 14:32:54;;;;;;;54.53;23.50;;;;;;;;;;5021003;28;20025;-73
2022/04/25 14:35:20;;;;;;;53.63;22.92;;;;;;;;;;5023856;28;20033;-73
2022/04/25 14:37:45;;;;;;;56.20;24.77;;;;;;;;;;5030681;28;20071;-73
2022/04/25 14:40:11;;;;;;;53.97;21.80;;;;;;;;;;5027804;28;20037;-72
2022/04/25 14:42:37;;;;;;;54.95;20.63;;;;;;;;;;5012862;28;20259;-72
2022/04/25 14:45:02;;;;;;;60.53;20.90;;;;;;;;;;5021591;28;20034;-72
2022/04/25 14:47:28;;;;;;;58.60;25.13;;;;;;;;;;5031042;28;20029;-72
2022/04/25 14:55:21;;;;;;;48.75;21.13;;;;;;;;;;5022377;28;20043;-73